This is the latest recevied weather packets stored in our database for station/object OK1FPA-15. If no packets are shown the sender has not sent any weather packets the latest 1 day(s).
| Time | Temp. | Humidity | Pressure | Rain* | Wind** | Luminosity | Snow |
|---|---|---|---|---|---|---|---|
| 1778084263 | 23.33° C | 37% | 1004.4 hPa | - | - | - | - |
| 1778083063 | 22.78° C | 41% | 1004.7 hPa | - | - | - | - |
| 1778082463 | 22.78° C | 39% | 1004.8 hPa | - | - | - | - |
| 1778080663 | 22.22° C | 40% | 1005.1 hPa | - | - | - | - |
| 1778080063 | 22.22° C | 39% | 1005.1 hPa | - | - | - | - |
| 1778079463 | 22.78° C | 41% | 1005.2 hPa | - | - | - | - |
| 1778078863 | 22.78° C | 41% | 1005.2 hPa | - | - | - | - |
| 1778078263 | 22.78° C | 40% | 1005.2 hPa | - | - | - | - |
| 1778077664 | 22.22° C | 40% | 1005.3 hPa | - | - | - | - |
| 1778076463 | 22.22° C | 40% | 1005.4 hPa | - | - | - | - |
| 1778075263 | 22.78° C | 39% | 1005.5 hPa | - | - | - | - |
| 1778074663 | 22.22° C | 39% | 1005.6 hPa | - | - | - | - |
| 1778074063 | 22.22° C | 39% | 1005.7 hPa | - | - | - | - |
| 1778073463 | 22.22° C | 43% | 1005.7 hPa | - | - | - | - |
| 1778072863 | 22.22° C | 43% | 1006 hPa | - | - | - | - |
| 1778071663 | 21.67° C | 45% | 1006.1 hPa | - | - | - | - |
| 1778069263 | 22.78° C | 43% | 1006.3 hPa | - | - | - | - |
| 1778068663 | 22.78° C | 44% | 1006.3 hPa | - | - | - | - |
| 1778068067 | 22.22° C | 45% | 1006.3 hPa | - | - | - | - |
| 1778066862 | 22.22° C | 48% | 1006.4 hPa | - | - | - | - |
| 1778066262 | 22.22° C | 47% | 1006.4 hPa | - | - | - | - |
| 1778062662 | 21.67° C | 50% | 1006.7 hPa | - | - | - | - |
| 1778060262 | 20.56° C | 54% | 1006.4 hPa | - | - | - | - |
| 1778059662 | 20.56° C | 56% | 1006.4 hPa | - | - | - | - |
| 1778057261 | 18.89° C | 64% | 1006.5 hPa | - | - | - | - |
* Rain since midnight (hover to see other rain measurements)
** Current wind speed in m/s (hover to see current wind gust speed)